createdAt,value
2023-01-27T00:02:05.420Z,6.32
2023-01-27T00:07:06.936Z,6.22
2023-01-27T00:12:19.296Z,5.90
2023-01-27T00:17:20.821Z,5.90
2023-01-27T00:22:22.268Z,6.25
2023-01-27T00:27:23.801Z,5.82
2023-01-27T00:32:25.307Z,6.32
2023-01-27T00:37:26.833Z,7.20
2023-01-27T00:42:28.274Z,5.47
2023-01-27T00:47:29.740Z,6.20
2023-01-27T00:52:31.250Z,6.18
2023-01-27T00:57:32.758Z,6.15
2023-01-27T01:02:34.226Z,6.53
2023-01-27T01:07:36.281Z,6.63
2023-01-27T01:12:37.780Z,7.55
2023-01-27T01:17:39.227Z,6.18
2023-01-27T01:22:40.770Z,6.10
2023-01-27T01:27:44.751Z,6.95
2023-01-27T01:32:46.251Z,6.28
2023-01-27T01:37:48.268Z,5.97
2023-01-27T01:43:01.105Z,5.93
2023-01-27T01:48:05.229Z,6.40
2023-01-27T01:53:08.457Z,6.20
2023-01-27T01:58:12.670Z,5.85
2023-01-27T02:03:14.758Z,6.78
2023-01-27T02:08:28.229Z,6.68
2023-01-27T02:13:29.739Z,7.53
2023-01-27T02:18:32.332Z,6.88
2023-01-27T02:23:55.375Z,7.05
2023-01-27T02:29:11.288Z,6.53
2023-01-27T02:34:16.655Z,6.97
2023-01-27T02:39:22.151Z,6.28
2023-01-27T02:44:23.881Z,6.32
2023-01-27T02:49:25.493Z,6.78
2023-01-27T02:54:29.614Z,6.35
2023-01-27T02:59:31.820Z,7.05
2023-01-27T03:04:33.473Z,6.28
2023-01-27T03:09:35.025Z,7.57
2023-01-27T03:14:36.498Z,6.05
2023-01-27T03:19:37.986Z,7.90
2023-01-27T03:24:39.689Z,7.38
2023-01-27T03:29:41.577Z,6.68
2023-01-27T03:34:43.154Z,7.95
2023-01-27T03:44:54.360Z,7.53
2023-01-27T03:49:55.796Z,7.82
2023-01-27T03:54:57.240Z,6.90
2023-01-27T03:59:58.778Z,7.45
2023-01-27T04:05:00.241Z,7.40
2023-01-27T04:10:02.705Z,7.03
2023-01-27T04:15:04.804Z,7.45
2023-01-27T04:20:06.821Z,7.90
2023-01-27T04:25:11.610Z,6.60
2023-01-27T04:30:14.131Z,8.13
2023-01-27T04:35:15.643Z,7.05
2023-01-27T04:40:17.257Z,6.85
2023-01-27T04:45:18.761Z,7.90
2023-01-27T04:50:20.221Z,7.35
2023-01-27T04:55:21.656Z,7.53
2023-01-27T05:00:23.207Z,9.27
2023-01-27T05:05:25.010Z,6.95
2023-01-27T05:10:26.485Z,8.00
2023-01-27T05:15:29.223Z,7.43
2023-01-27T05:20:30.856Z,7.43
2023-01-27T05:25:32.290Z,7.72
2023-01-27T05:30:33.855Z,7.93
2023-01-27T05:35:35.434Z,7.07
2023-01-27T05:40:36.936Z,7.15
2023-01-27T05:45:38.419Z,7.88
2023-01-27T05:50:39.897Z,6.90
2023-01-27T05:55:43.571Z,7.63
2023-01-27T06:00:45.486Z,8.07
2023-01-27T06:05:55.430Z,7.53
2023-01-27T06:10:58.761Z,6.70
2023-01-27T06:16:02.669Z,8.20
2023-01-27T06:21:06.687Z,7.13
2023-01-27T06:26:10.952Z,5.88
2023-01-27T06:31:20.825Z,7.20
2023-01-27T06:36:22.745Z,8.43
2023-01-27T06:41:24.271Z,7.75
2023-01-27T06:46:26.062Z,8.30
2023-01-27T06:51:27.587Z,6.97
2023-01-27T06:56:29.066Z,7.00
2023-01-27T07:01:30.637Z,8.60
2023-01-27T07:06:32.201Z,7.00
2023-01-27T07:11:33.741Z,7.47
2023-01-27T07:16:35.262Z,8.05
2023-01-27T07:21:36.805Z,7.20
2023-01-27T07:26:38.583Z,7.00
2023-01-27T07:31:40.307Z,8.48
2023-01-27T07:36:41.841Z,7.80
2023-01-27T07:41:43.351Z,7.68
2023-01-27T07:46:49.572Z,7.07
2023-01-27T07:51:51.141Z,7.82
2023-01-27T07:56:52.651Z,7.15
2023-01-27T08:01:54.341Z,7.75
2023-01-27T08:06:55.843Z,7.40
2023-01-27T08:11:57.352Z,7.97
2023-01-27T08:16:58.898Z,7.53
2023-01-27T08:22:00.434Z,6.88
2023-01-27T08:27:01.910Z,7.63
2023-01-27T08:32:03.557Z,7.55
2023-01-27T08:37:06.300Z,6.47
2023-01-27T08:42:07.832Z,6.75
2023-01-27T08:47:09.297Z,6.70
2023-01-27T08:52:10.820Z,7.18
2023-01-27T08:57:12.292Z,6.82
2023-01-27T09:02:13.751Z,5.75
2023-01-27T09:07:15.290Z,6.38
2023-01-27T09:12:16.985Z,5.78
2023-01-27T09:17:18.540Z,4.93
2023-01-27T09:22:20.120Z,4.95
2023-01-27T09:27:37.088Z,5.57
2023-01-27T09:32:41.096Z,6.05
2023-01-27T09:37:56.358Z,5.38
2023-01-27T09:43:19.037Z,5.28
2023-01-27T09:48:39.319Z,5.70
2023-01-27T09:53:53.061Z,5.20
2023-01-27T09:59:33.027Z,4.82
2023-01-27T10:04:59.177Z,4.57
2023-01-27T10:10:13.040Z,4.60
2023-01-27T10:15:43.973Z,4.38
2023-01-27T10:21:21.426Z,4.35
2023-01-27T10:26:42.147Z,4.05
2023-01-27T10:31:53.070Z,4.75
2023-01-27T10:37:06.779Z,4.63
2023-01-27T10:42:17.380Z,4.60
2023-01-27T10:47:40.611Z,3.90
2023-01-27T10:52:56.885Z,3.78
2023-01-27T10:58:03.491Z,3.75
2023-01-27T11:03:12.579Z,4.13
2023-01-27T11:08:25.555Z,3.90
2023-01-27T11:13:30.624Z,4.22
2023-01-27T11:18:36.019Z,4.07
2023-01-27T11:23:43.584Z,4.72
2023-01-27T11:29:16.497Z,3.97
2023-01-27T11:34:55.781Z,4.03
2023-01-27T11:39:57.431Z,3.47
2023-01-27T11:45:00.745Z,3.75
2023-01-27T11:50:04.308Z,3.85
2023-01-27T11:55:16.123Z,4.05
2023-01-27T12:00:38.409Z,4.45
2023-01-27T12:05:48.853Z,3.78
2023-01-27T12:10:50.474Z,4.03
2023-01-27T12:15:58.870Z,3.47
2023-01-27T12:21:04.831Z,3.45
2023-01-27T12:26:11.315Z,5.38
2023-01-27T12:31:12.816Z,4.65
2023-01-27T12:36:17.781Z,4.25
2023-01-27T12:41:31.011Z,4.03
2023-01-27T12:46:32.739Z,4.60
2023-01-27T12:51:41.831Z,13.35
2023-01-27T12:56:43.603Z,5.97
2023-01-27T13:02:01.747Z,4.63
2023-01-27T13:07:12.411Z,5.25
2023-01-27T13:12:34.317Z,4.72
2023-01-27T13:17:53.762Z,4.55
2023-01-27T13:23:05.835Z,3.72
2023-01-27T13:28:08.497Z,6.50
2023-01-27T13:33:30.410Z,4.35
2023-01-27T13:39:06.856Z,4.85
2023-01-27T13:44:38.883Z,4.43
2023-01-27T13:50:07.121Z,3.97
2023-01-27T13:55:14.062Z,4.78
2023-01-27T14:00:54.248Z,5.13
2023-01-27T14:06:07.770Z,6.47
2023-01-27T14:11:12.227Z,4.85
2023-01-27T14:16:25.012Z,4.65
2023-01-27T14:21:48.498Z,4.63
2023-01-27T14:27:12.853Z,4.65
2023-01-27T14:32:33.353Z,3.88
2023-01-27T14:37:53.810Z,3.97
2023-01-27T14:43:06.805Z,4.97
2023-01-27T14:48:20.359Z,4.93
2023-01-27T14:53:36.955Z,3.83
2023-01-27T14:58:55.271Z,4.75
2023-01-27T15:04:23.408Z,5.53
2023-01-27T15:09:40.652Z,4.60
2023-01-27T15:15:21.042Z,4.72
2023-01-27T15:20:33.950Z,4.28
2023-01-27T15:25:50.043Z,4.72
2023-01-27T15:31:15.930Z,4.45
2023-01-27T15:36:27.929Z,4.70
2023-01-27T15:41:29.498Z,4.43
2023-01-27T15:46:36.515Z,4.60
2023-01-27T15:51:38.433Z,4.35
2023-01-27T15:56:48.110Z,4.55
2023-01-27T16:01:59.374Z,4.03
2023-01-27T16:07:04.557Z,4.70
2023-01-27T16:12:24.565Z,4.53
2023-01-27T16:17:26.212Z,5.97
2023-01-27T16:22:32.027Z,8.35
2023-01-27T16:27:47.786Z,6.40
2023-01-27T16:33:14.754Z,4.57
2023-01-27T16:38:20.541Z,4.13
2023-01-27T16:43:33.374Z,3.95
2023-01-27T16:48:44.900Z,5.45
2023-01-27T16:53:52.193Z,5.18
2023-01-27T16:59:01.775Z,3.88
2023-01-27T17:04:19.177Z,4.80
2023-01-27T17:09:25.636Z,5.97
2023-01-27T17:14:32.931Z,5.18
2023-01-27T17:19:36.654Z,5.03
2023-01-27T17:24:45.199Z,5.15
2023-01-27T17:29:49.462Z,6.15
2023-01-27T17:34:53.707Z,5.60
2023-01-27T17:39:59.214Z,5.82
2023-01-27T17:45:22.584Z,5.97
2023-01-27T17:50:27.305Z,7.38
2023-01-27T17:55:30.180Z,5.88
2023-01-27T18:00:38.130Z,6.20
2023-01-27T18:05:44.135Z,6.35
2023-01-27T18:10:46.521Z,7.25
2023-01-27T18:16:02.804Z,6.20
2023-01-27T18:21:04.313Z,6.28
2023-01-27T18:26:15.339Z,5.82
2023-01-27T18:31:24.526Z,6.22
2023-01-27T18:36:30.266Z,6.22
2023-01-27T18:41:31.876Z,6.95
2023-01-27T18:46:33.396Z,5.97
2023-01-27T18:51:34.897Z,6.60
2023-01-27T18:56:36.425Z,5.97
2023-01-27T19:01:38.020Z,7.07
2023-01-27T19:06:39.587Z,7.13
2023-01-27T19:11:41.097Z,7.55
2023-01-27T19:16:42.618Z,6.63
2023-01-27T19:21:44.149Z,6.85
2023-01-27T19:26:45.807Z,7.47
2023-01-27T19:31:47.359Z,6.63
2023-01-27T19:36:48.941Z,8.02
2023-01-27T19:41:50.411Z,7.22
2023-01-27T19:46:51.957Z,7.78
2023-01-27T19:51:53.459Z,7.32
2023-01-27T19:56:54.906Z,6.80
2023-01-27T20:01:56.498Z,7.63
2023-01-27T20:06:58.031Z,7.65
2023-01-27T20:11:59.584Z,7.53
2023-01-27T20:17:01.075Z,7.50
2023-01-27T20:22:02.565Z,7.40
2023-01-27T20:27:04.169Z,8.52
2023-01-27T20:32:05.872Z,8.50
2023-01-27T20:37:07.414Z,7.78
2023-01-27T20:42:09.166Z,8.40
2023-01-27T20:47:13.956Z,7.63
2023-01-27T20:52:15.407Z,8.38
2023-01-27T20:57:16.853Z,8.18
2023-01-27T21:02:18.393Z,8.55
2023-01-27T21:07:21.474Z,8.38
2023-01-27T21:12:22.952Z,8.88
2023-01-27T21:17:24.426Z,9.38
2023-01-27T21:22:25.870Z,8.30
2023-01-27T21:27:27.330Z,9.10
2023-01-27T21:32:28.781Z,9.00
2023-01-27T21:37:30.260Z,8.13
2023-01-27T21:42:31.750Z,8.25
2023-01-27T21:47:33.188Z,8.60
2023-01-27T21:52:38.137Z,8.05
2023-01-27T21:57:40.388Z,8.98
2023-01-27T22:02:42.644Z,8.45
2023-01-27T22:07:44.180Z,7.75
2023-01-27T22:12:46.420Z,8.48
2023-01-27T22:17:48.027Z,6.82
2023-01-27T22:22:49.597Z,7.25
2023-01-27T22:28:00.288Z,8.32
2023-01-27T22:33:01.766Z,8.00
2023-01-27T22:38:03.281Z,8.23
2023-01-27T22:43:04.719Z,8.18
2023-01-27T22:48:06.203Z,7.40
2023-01-27T22:53:07.738Z,8.93
2023-01-27T22:58:09.306Z,8.82
2023-01-27T23:03:10.758Z,8.02
2023-01-27T23:08:12.262Z,7.70
2023-01-27T23:13:14.273Z,8.32
2023-01-27T23:18:15.740Z,8.65
2023-01-27T23:23:18.054Z,8.90
2023-01-27T23:28:19.571Z,10.48
2023-01-27T23:33:21.336Z,11.88
2023-01-27T23:38:32.585Z,9.77
2023-01-27T23:43:35.411Z,8.80
2023-01-27T23:48:36.932Z,9.65
2023-01-27T23:53:38.469Z,10.18
2023-01-27T23:58:39.999Z,8.85
